»·PEaware :: N7825F KBUR-KFUL

N7825F :: KBUR-KFUL

FLIGHT INFORMATION

Flight Status: Arrived
Operator: Privately registered:
United States
More flights under this callsign
Pilot: Jim J. (24894)
Aircraft: CESSNA 172 SKYHAWK
(C172)
More flights by this aircraft type
Origin: KBUR Bob Hope-Burbank
United States
Destination: KFUL Fullerton Mun
United States
More flights between these airports :: More routes between these airports
Route: DIRECT
File this flight plan on PilotEdge
Remarks: Cat-09
Altitude:
(Current/Filed)
3,500ft
Speed:
(Current/Filed)
110kts
Departed: 21-Aug-19 02:26 PM
Arrived: 21-Aug-19 02:54 PM
Distance/Time
Traveled:
27nm/0:28
Distance/Time
To Go:
Arrived

Flight Plot

Page will automatically refresh every two minutes.


Map Options




Map Legend


Flown Route
Filed Route
Departure Airport
Arrival Airport
Navaid (VOR, NDB)
Fix

Horizontal Profiles

Position Reports

Time Latitude Longitude Heading Altitude Ground
Speed
21-Aug-19 13:51 34.196338 -118.367565 358 721ft 0kts
21-Aug-19 13:52 34.196338 -118.367565 358 721ft 0kts
21-Aug-19 13:53 34.196338 -118.367565 358 721ft 0kts
21-Aug-19 13:54 34.196338 -118.367565 358 721ft 0kts
21-Aug-19 13:55 34.196338 -118.367565 358 721ft 0kts
21-Aug-19 13:56 34.196338 -118.367565 358 721ft 0kts
21-Aug-19 13:57 34.196338 -118.367565 358 721ft 0kts
21-Aug-19 13:58 34.196338 -118.367565 358 721ft 0kts
21-Aug-19 13:59 34.196338 -118.367565 358 721ft 0kts
21-Aug-19 14:00 34.196338 -118.367565 358 721ft 0kts
21-Aug-19 14:01 34.196338 -118.367565 358 721ft 0kts
21-Aug-19 14:02 34.196338 -118.367565 358 721ft 0kts
21-Aug-19 14:03 34.196338 -118.367565 358 721ft 0kts
21-Aug-19 14:04 34.196338 -118.367565 358 721ft 0kts
21-Aug-19 14:05 34.196338 -118.367565 358 721ft 0kts
21-Aug-19 14:06 34.196338 -118.367565 358 721ft 0kts
21-Aug-19 14:07 34.196338 -118.367565 358 721ft 0kts
21-Aug-19 14:08 34.196338 -118.367565 358 721ft 0kts
21-Aug-19 14:09 34.196338 -118.367565 358 721ft 0kts
21-Aug-19 14:10 34.196338 -118.367565 358 721ft 0kts
21-Aug-19 14:11 34.196338 -118.367565 358 721ft 0kts
21-Aug-19 14:12 34.196338 -118.367565 358 721ft 0kts
21-Aug-19 14:13 34.196338 -118.367565 358 721ft 0kts
21-Aug-19 14:14 34.196338 -118.367565 358 721ft 0kts
21-Aug-19 14:15 34.196338 -118.367565 358 721ft 0kts
21-Aug-19 14:16 34.196338 -118.367565 358 721ft 0kts
21-Aug-19 14:17 34.196338 -118.367565 358 721ft 0kts
21-Aug-19 14:18 34.196338 -118.367565 358 721ft 0kts
21-Aug-19 14:19 34.196454 -118.367754 306 722ft 0kts
21-Aug-19 14:20 34.196756 -118.366763 30 722ft 3kts
21-Aug-19 14:21 34.197066 -118.368892 325 724ft 0kts
21-Aug-19 14:22 34.197066 -118.368892 325 724ft 0kts
21-Aug-19 14:23 34.197066 -118.368892 325 724ft 0kts
21-Aug-19 14:24 34.197912 -118.368656 83 725ft 4kts
21-Aug-19 14:25 34.197687 -118.355552 92 1063ft 73kts
21-Aug-19 14:26 34.192953 -118.331822 108 2002ft 74kts
21-Aug-19 14:27 34.187164 -118.307812 109 2878ft 76kts
21-Aug-19 14:28 34.181311 -118.282054 109 3565ft 88kts
21-Aug-19 14:29 34.175962 -118.249911 105 3778ft 113kts
21-Aug-19 14:31 34.168979 -118.213485 108 3520ft 103kts
21-Aug-19 14:32 34.162173 -118.182392 104 3566ft 87kts
21-Aug-19 14:33 34.150701 -118.154634 121 3516ft 100kts
21-Aug-19 14:34 34.137547 -118.125705 129 3642ft 97kts
21-Aug-19 14:35 34.120461 -118.098792 135 3647ft 106kts
21-Aug-19 14:36 34.104092 -118.069185 123 3658ft 109kts
21-Aug-19 14:37 34.087931 -118.036404 134 3549ft 114kts
21-Aug-19 14:38 34.065278 -118.011335 145 3549ft 108kts
21-Aug-19 14:39 34.038317 -117.994894 158 3429ft 106kts
21-Aug-19 14:40 34.012662 -117.978267 153 3485ft 100kts
21-Aug-19 14:41 33.989039 -117.961299 157 3600ft 98kts
21-Aug-19 14:42 33.964244 -117.945006 154 3596ft 107kts
21-Aug-19 14:43 33.937751 -117.925981 151 3525ft 108kts
21-Aug-19 14:44 33.911729 -117.907837 153 3485ft 105kts
21-Aug-19 14:45 33.885571 -117.895044 203 3451ft 103kts
21-Aug-19 14:46 33.876448 -117.925861 262 3337ft 101kts
21-Aug-19 14:47 33.875301 -117.962343 258 1717ft 119kts
21-Aug-19 14:48 33.872311 -117.997342 305 824ft 95kts
21-Aug-19 14:49 33.896792 -117.991144 62 1050ft 106kts
21-Aug-19 14:50 33.901521 -117.958030 124 1218ft 108kts
21-Aug-19 14:51 33.885905 -117.942716 197 1232ft 72kts
21-Aug-19 14:52 33.876135 -117.960444 244 746ft 59kts
21-Aug-19 14:52 33.872950 -117.975334 253 197ft 49kts
21-Aug-19 14:54 33.871429 -117.981191 167 90ft 4kts
21-Aug-19 14:54 33.870662 -117.980287 88 92ft 9kts

Navigation Log

Ident Type
Flight plan parsing failed, navigation log unavailable